Погода Цумалина 2 недели

Республика Дагестан, Россия

14 - 27 июля
  • 14июля
    Сегодня
    +19°
    +31°
    Ясно и безоблачно
    ВремяПогодаТемператураВлажностьДавлениеВетер, м/сВероятность осадков
    00:00Небольшая облачность+20°C82 %688 мм0.6 м/с9 %
    03:00Ясно и безоблачно+21°C83 %688 мм0.8 м/с14 %
    06:00Ясно и безоблачно+21°C77 %688 мм0.7 м/с12 %
    09:00Ясно и безоблачно+27°C44 %689 мм0.8 м/с6 %
    12:00Ясно и безоблачно+30°C36 %688 мм1.3 м/с7 %
    15:00Ясно и безоблачно+31°C33 %688 мм2.2 м/с6 %
    18:00Ясно и безоблачно+27°C38 %688 мм1.3 м/с3 %
    21:00Ясно и безоблачно+22°C52 %689 мм0.5 м/с2 %
  • 15июля
    Понедельник
    +22°
    +33°
    Небольшая облачность
    ВремяПогодаТемператураВлажностьДавлениеВетер, м/сВероятность осадков
    00:00Ясно и безоблачно+20°C60 %688 мм0.5 м/с2 %
    03:00Ясно и безоблачно+20°C59 %689 мм0.7 м/с2 %
    06:00Ясно и безоблачно+21°C57 %689 мм0.4 м/с2 %
    09:00Ясно и безоблачно+26°C35 %689 мм0.4 м/с2 %
    12:00Ясно и безоблачно+31°C26 %689 мм1.7 м/с2 %
    15:00Небольшая облачность+33°C28 %689 мм2.4 м/с2 %
    18:00Небольшая облачность+30°C40 %689 мм1.3 м/с2 %
    21:00Ясно и безоблачно+26°C54 %690 мм1.2 м/с2 %
  • 16июля
    Вторник
    +23°
    +34°
    Облачно с прояснениями
    ВремяПогодаТемператураВлажностьДавлениеВетер, м/сВероятность осадков
    00:00Ясно и безоблачно+24°C64 %690 мм0.6 м/с2 %
    03:00Ясно и безоблачно+23°C71 %690 мм1.0 м/с2 %
    06:00Ясно и безоблачно+24°C65 %690 мм0.7 м/с2 %
    09:00Ясно и безоблачно+29°C42 %690 мм0.1 м/с2 %
    12:00Практически безоблачно+33°C27 %690 мм1.4 м/с5 %
    15:00Облачно с прояснениями+34°C28 %690 мм2.2 м/с13 %
    18:00Небольшая облачность+32°C37 %690 мм2.1 м/с6 %
    21:00Ясно и безоблачно+27°C57 %691 мм1.2 м/с2 %
  • 17июля
    Среда
    +22°
    +34°
    Небольшая облачность
    ВремяПогодаТемператураВлажностьДавлениеВетер, м/сВероятность осадков
    00:00Ясно и безоблачно+26°C63 %691 мм0.6 м/с2 %
    03:00Ясно и безоблачно+25°C66 %691 мм0.5 м/с2 %
    06:00Ясно и безоблачно+25°C63 %691 мм0.5 м/с2 %
    09:00Ясно и безоблачно+29°C42 %691 мм0.2 м/с2 %
    12:00Небольшая облачность+33°C30 %691 мм0.7 м/с19 %
    15:00Небольшая облачность+33°C32 %691 мм1.9 м/с40 %
    18:00Практически безоблачно+31°C34 %690 мм1.3 м/с24 %
    21:00Ясно и безоблачно+27°C47 %691 мм0.4 м/с2 %
  • 18июля
    Четверг
    +20°
    +34°
    Небольшая облачность и лёгкий дождик
    ВремяПогодаТемператураВлажностьДавлениеВетер, м/сВероятность осадков
    00:00Небольшая облачность+25°C59 %690 мм0.8 м/с3 %
    03:00Небольшая облачность+24°C63 %690 мм0.9 м/с2 %
    06:00Ясно и безоблачно+25°C60 %691 мм0.9 м/с3 %
    09:00Ясно и безоблачно+29°C39 %691 мм0.9 м/с11 %
    12:00Практически безоблачно+33°C28 %690 мм2.1 м/с50 %
    15:00Небольшая облачность и лёгкий дождик+33°C27 %690 мм2.2 м/с53 %
    18:00Ясно и безоблачно+30°C32 %689 мм1.2 м/с37 %
    21:00Практически безоблачно+25°C47 %689 мм0.2 м/с8 %
Мы используем cookies
Соглашаюсь